Terminal Aerodrome Forecast
Issued by NWS Twin Cities, MN

Home | Current Version | Previous Version | Graphics & Text | Print | Product List | Glossary On
Versions: 1 2 3 4 5 6 7 8 9 10 11 12 13 14 15 16 17 18 19 20
000
FTUS43 KMPX 291700
TAFSTC
TAF
KSTC 291725Z 2918/3018 15003KT P6SM -SHRA BKN012 BKN035 BKN110
     FM291900 22004KT P6SM VCTS BKN025CB BKN080
      TEMPO 2919/2922 3SM TSRA BKN015CB
     FM292200 00000KT P6SM VCSH SCT020 BKN050
     FM300300 32004KT 4SM BR SCT007 OVC012
     FM300600 34005KT 2SM BR OVC006=

USA.gov is the U.S. government's official web portal to all federal, state and local government web resources and services.